createdAt,value
2022-07-25T00:00:45.714Z,13.41
2022-07-25T00:03:14.085Z,13.39
2022-07-25T00:05:45.705Z,13.39
2022-07-25T00:08:12.710Z,13.37
2022-07-25T00:10:39.878Z,13.35
2022-07-25T00:13:06.872Z,13.35
2022-07-25T00:15:34.058Z,13.36
2022-07-25T00:18:01.575Z,13.35
2022-07-25T00:20:28.710Z,13.32
2022-07-25T00:22:55.689Z,13.30
2022-07-25T00:25:22.905Z,13.26
2022-07-25T00:27:50.102Z,13.23
2022-07-25T00:30:17.164Z,13.21
2022-07-25T00:32:44.113Z,13.18
2022-07-25T00:35:11.481Z,13.17
2022-07-25T00:37:38.448Z,13.16
2022-07-25T00:40:05.904Z,13.14
2022-07-25T00:42:33.478Z,13.13
2022-07-25T00:45:00.629Z,13.12
2022-07-25T00:47:27.644Z,13.13
2022-07-25T00:49:54.713Z,13.13
2022-07-25T00:52:21.823Z,13.17
2022-07-25T00:54:49.121Z,13.16
2022-07-25T00:57:16.108Z,13.15
2022-07-25T00:59:43.184Z,13.13
2022-07-25T01:02:10.449Z,13.12
2022-07-25T01:04:37.543Z,13.11
2022-07-25T01:07:04.722Z,13.10
2022-07-25T01:09:31.942Z,13.11
2022-07-25T01:11:58.924Z,13.12
2022-07-25T01:14:25.851Z,13.10
2022-07-25T01:16:52.944Z,13.11
2022-07-25T01:19:19.967Z,13.09
2022-07-25T01:21:47.072Z,13.05
2022-07-25T01:24:14.063Z,13.00
2022-07-25T01:26:41.302Z,12.99
2022-07-25T01:29:08.304Z,12.99
2022-07-25T01:31:35.533Z,12.98
2022-07-25T01:34:02.708Z,12.95
2022-07-25T01:36:29.912Z,12.93
2022-07-25T01:38:57.623Z,12.95
2022-07-25T01:41:24.631Z,13.00
2022-07-25T01:43:51.703Z,13.06
2022-07-25T01:46:18.892Z,13.05
2022-07-25T01:48:46.224Z,13.03
2022-07-25T01:51:13.500Z,13.02
2022-07-25T01:53:40.542Z,12.98
2022-07-25T01:56:10.982Z,12.95
2022-07-25T01:58:39.572Z,12.93
2022-07-25T02:01:06.744Z,12.93
2022-07-25T02:03:33.915Z,12.93
2022-07-25T02:06:03.533Z,12.92
2022-07-25T02:08:31.657Z,12.91
2022-07-25T02:10:58.944Z,12.88
2022-07-25T02:13:26.907Z,12.88
2022-07-25T02:15:54.293Z,12.85
2022-07-25T02:18:21.425Z,12.85
2022-07-25T02:20:48.548Z,12.84
2022-07-25T02:23:15.605Z,12.81
2022-07-25T02:25:42.624Z,12.80
2022-07-25T02:28:10.706Z,12.78
2022-07-25T02:30:38.146Z,12.77
2022-07-25T02:33:05.343Z,12.76
2022-07-25T02:35:32.307Z,12.78
2022-07-25T02:37:59.384Z,12.79
2022-07-25T02:40:26.665Z,12.78
2022-07-25T02:42:53.524Z,12.81
2022-07-25T02:45:20.633Z,12.78
2022-07-25T02:47:47.604Z,12.75
2022-07-25T02:50:15.209Z,12.66
2022-07-25T02:52:42.845Z,12.61
2022-07-25T02:55:10.750Z,12.62
2022-07-25T02:57:38.045Z,12.66
2022-07-25T03:00:07.164Z,12.72
2022-07-25T03:02:34.433Z,12.76
2022-07-25T03:05:01.532Z,12.82
2022-07-25T03:07:28.661Z,12.89
2022-07-25T03:09:55.784Z,12.99
2022-07-25T03:12:22.706Z,13.37
2022-07-25T03:14:49.804Z,13.91
2022-07-25T03:17:16.869Z,14.33
2022-07-25T03:19:43.984Z,14.81
2022-07-25T03:22:11.063Z,15.30
2022-07-25T03:24:38.164Z,15.76
2022-07-25T03:27:05.428Z,16.20
2022-07-25T03:29:32.405Z,16.56
2022-07-25T03:31:59.656Z,16.98
2022-07-25T03:34:26.684Z,17.33
2022-07-25T03:36:53.743Z,17.42
2022-07-25T03:39:20.828Z,16.96
2022-07-25T03:41:48.173Z,16.49
2022-07-25T03:44:15.205Z,16.26
2022-07-25T03:46:42.245Z,16.18
2022-07-25T03:49:09.374Z,16.16
2022-07-25T03:51:36.382Z,16.31
2022-07-25T03:54:04.658Z,16.65
2022-07-25T03:56:36.535Z,16.72
2022-07-25T03:59:13.065Z,16.53
2022-07-25T04:01:40.161Z,16.41
2022-07-25T04:04:08.268Z,16.33
2022-07-25T04:06:35.696Z,16.32
2022-07-25T04:09:02.906Z,16.34
2022-07-25T04:11:31.011Z,16.35
2022-07-25T04:13:58.497Z,16.36
2022-07-25T04:16:25.727Z,16.35
2022-07-25T04:18:55.299Z,16.33
2022-07-25T04:21:24.380Z,16.30
2022-07-25T04:23:51.725Z,16.32
2022-07-25T04:26:19.064Z,16.38
2022-07-25T04:28:46.312Z,16.42
2022-07-25T04:31:13.277Z,16.48
2022-07-25T04:33:40.607Z,16.52
2022-07-25T04:36:08.023Z,16.56
2022-07-25T04:38:35.581Z,16.62
2022-07-25T04:41:03.623Z,16.67
2022-07-25T04:43:30.742Z,16.70
2022-07-25T04:45:57.792Z,16.72
2022-07-25T04:48:24.972Z,16.77
2022-07-25T04:50:52.601Z,16.79
2022-07-25T04:53:19.804Z,16.79
2022-07-25T04:55:46.871Z,16.86
2022-07-25T04:58:13.884Z,16.88
2022-07-25T05:00:42.008Z,17.15
2022-07-25T05:03:09.085Z,17.23
2022-07-25T05:05:36.237Z,17.39
2022-07-25T05:08:03.903Z,17.92
2022-07-25T05:10:31.091Z,18.29
2022-07-25T05:12:58.657Z,18.44
2022-07-25T05:15:25.999Z,18.71
2022-07-25T05:17:53.170Z,18.81
2022-07-25T05:20:20.293Z,18.89
2022-07-25T05:22:47.419Z,19.08
2022-07-25T05:25:14.843Z,19.41
2022-07-25T05:27:42.276Z,19.61
2022-07-25T05:30:11.273Z,19.74
2022-07-25T05:32:38.962Z,19.92
2022-07-25T05:35:08.064Z,20.14
2022-07-25T05:37:36.149Z,20.27
2022-07-25T05:40:04.790Z,20.42
2022-07-25T05:42:31.903Z,20.63
2022-07-25T05:44:58.887Z,20.82
2022-07-25T05:47:25.969Z,20.87
2022-07-25T05:49:52.902Z,21.02
2022-07-25T05:52:19.851Z,21.24
2022-07-25T05:54:46.825Z,21.38
2022-07-25T05:57:13.908Z,21.50
2022-07-25T05:59:41.114Z,21.64
2022-07-25T06:02:08.534Z,21.67
2022-07-25T06:04:35.713Z,21.85
2022-07-25T06:07:02.980Z,21.95
2022-07-25T06:09:32.369Z,22.09
2022-07-25T06:12:01.033Z,22.27
2022-07-25T06:14:29.279Z,22.44
2022-07-25T06:16:57.022Z,22.49
2022-07-25T06:19:24.088Z,22.63
2022-07-25T06:21:51.302Z,22.80
2022-07-25T06:24:18.481Z,22.88
2022-07-25T06:26:45.660Z,22.88
2022-07-25T06:29:12.723Z,22.90
2022-07-25T06:31:40.097Z,22.90
2022-07-25T06:34:07.719Z,22.83
2022-07-25T06:36:35.350Z,22.90
2022-07-25T06:39:02.706Z,23.03
2022-07-25T06:41:29.805Z,23.21
2022-07-25T06:43:56.846Z,23.43
2022-07-25T06:46:23.997Z,23.49
2022-07-25T06:48:51.204Z,23.48
2022-07-25T06:51:18.282Z,23.55
2022-07-25T06:53:45.338Z,23.70
2022-07-25T06:56:17.577Z,23.76
2022-07-25T06:58:45.013Z,23.91
2022-07-25T07:01:12.372Z,24.18
2022-07-25T07:03:40.537Z,24.35
2022-07-25T07:06:12.031Z,24.33
2022-07-25T07:08:39.125Z,24.26
2022-07-25T07:11:06.540Z,24.34
2022-07-25T07:13:33.976Z,24.24
2022-07-25T07:16:02.183Z,24.24
2022-07-25T07:18:29.379Z,24.28
2022-07-25T07:20:56.419Z,24.33
2022-07-25T07:23:24.541Z,24.54
2022-07-25T07:25:51.978Z,24.83
2022-07-25T07:28:20.461Z,25.03
2022-07-25T07:33:34.563Z,25.27
2022-07-25T07:36:02.408Z,25.44
2022-07-25T07:38:29.659Z,25.39
2022-07-25T07:40:56.773Z,25.33
2022-07-25T07:43:29.376Z,25.11
2022-07-25T07:46:01.375Z,25.03
2022-07-25T07:48:29.769Z,25.00
2022-07-25T07:50:57.381Z,25.12
2022-07-25T07:53:44.341Z,25.29
2022-07-25T07:56:12.303Z,25.46
2022-07-25T07:58:39.390Z,25.57
2022-07-25T08:01:07.157Z,25.76
2022-07-25T08:03:34.260Z,25.92
2022-07-25T08:06:01.300Z,25.99
2022-07-25T08:08:31.345Z,26.12
2022-07-25T08:10:59.773Z,26.20
2022-07-25T08:13:33.201Z,26.17
2022-07-25T08:16:03.777Z,26.15
2022-07-25T08:18:34.911Z,26.20
2022-07-25T08:21:06.624Z,26.28
2022-07-25T08:23:35.546Z,26.40
2022-07-25T08:26:04.072Z,26.56
2022-07-25T08:28:31.687Z,26.61
2022-07-25T08:30:59.265Z,26.68
2022-07-25T08:33:26.646Z,26.74
2022-07-25T08:35:55.140Z,26.62
2022-07-25T08:38:24.221Z,26.58
2022-07-25T08:40:51.821Z,26.59
2022-07-25T08:43:19.662Z,26.69
2022-07-25T08:45:51.510Z,26.84
2022-07-25T08:48:23.745Z,26.94
2022-07-25T08:50:51.759Z,27.05
2022-07-25T08:53:36.089Z,27.10
2022-07-25T08:56:15.999Z,27.07
2022-07-25T08:58:44.839Z,27.11
2022-07-25T09:01:13.063Z,27.11
2022-07-25T09:03:40.508Z,27.15
2022-07-25T09:06:16.021Z,27.21
2022-07-25T09:08:53.240Z,27.23
2022-07-25T09:11:47.061Z,27.24
2022-07-25T09:14:15.161Z,27.32
2022-07-25T09:16:45.175Z,27.26
2022-07-25T09:19:20.439Z,27.26
2022-07-25T09:22:06.999Z,27.36
2022-07-25T09:24:37.581Z,27.46
2022-07-25T09:27:12.858Z,27.44
2022-07-25T09:29:40.882Z,27.54
2022-07-25T09:32:16.900Z,27.72
2022-07-25T09:34:46.060Z,27.83
2022-07-25T09:37:15.148Z,27.82
2022-07-25T09:39:46.800Z,27.74
2022-07-25T09:42:33.179Z,27.66
2022-07-25T09:45:13.464Z,27.74
2022-07-25T09:47:58.454Z,27.81
2022-07-25T09:50:28.038Z,27.85
2022-07-25T09:52:57.160Z,27.83
2022-07-25T09:55:24.983Z,27.76
2022-07-25T09:57:55.244Z,27.83
2022-07-25T10:00:25.370Z,28.01
2022-07-25T10:02:55.574Z,28.10
2022-07-25T10:05:45.765Z,28.13
2022-07-25T10:08:13.022Z,28.15
2022-07-25T10:10:41.606Z,28.19
2022-07-25T10:13:15.497Z,28.28
2022-07-25T10:15:50.504Z,28.44
2022-07-25T10:18:19.989Z,28.50
2022-07-25T10:20:48.545Z,28.47
2022-07-25T10:23:18.622Z,28.48
2022-07-25T10:25:48.927Z,28.48
2022-07-25T10:28:19.402Z,28.59
2022-07-25T10:30:46.759Z,28.65
2022-07-25T10:33:21.548Z,28.62
2022-07-25T10:35:48.760Z,28.48
2022-07-25T10:38:24.964Z,28.38
2022-07-25T10:40:52.283Z,28.38
2022-07-25T10:43:21.369Z,28.39
2022-07-25T10:45:54.418Z,28.47
2022-07-25T10:48:27.460Z,28.57
2022-07-25T10:51:01.940Z,28.64
2022-07-25T10:53:55.060Z,28.76
2022-07-25T10:56:28.019Z,28.81
2022-07-25T10:59:01.862Z,28.80
2022-07-25T11:01:34.395Z,28.81
2022-07-25T11:04:04.580Z,28.82
2022-07-25T11:06:34.320Z,28.97
2022-07-25T11:09:02.374Z,29.13
2022-07-25T11:11:37.450Z,29.19
2022-07-25T11:14:05.814Z,29.16
2022-07-25T11:16:33.127Z,29.16
2022-07-25T11:19:00.200Z,29.06
2022-07-25T11:21:27.320Z,28.87
2022-07-25T11:23:54.401Z,28.95
2022-07-25T11:26:21.437Z,28.92
2022-07-25T11:28:50.142Z,28.88
2022-07-25T11:31:18.895Z,29.00
2022-07-25T11:33:47.948Z,28.95
2022-07-25T11:36:15.384Z,28.94
2022-07-25T11:38:42.779Z,28.97
2022-07-25T11:41:10.079Z,29.04
2022-07-25T11:43:37.421Z,29.18
2022-07-25T11:46:07.757Z,29.27
2022-07-25T11:48:40.406Z,29.43
2022-07-25T11:51:19.162Z,29.39
2022-07-25T11:53:51.487Z,29.32
2022-07-25T11:56:41.980Z,29.38
2022-07-25T11:59:10.815Z,29.41
2022-07-25T12:01:42.380Z,29.31
2022-07-25T12:04:17.961Z,29.31
2022-07-25T12:06:47.373Z,29.42
2022-07-25T12:09:21.942Z,29.38
2022-07-25T12:11:49.841Z,29.36
2022-07-25T12:14:17.218Z,29.38
2022-07-25T12:16:44.579Z,29.45
2022-07-25T12:19:19.825Z,29.57
2022-07-25T12:21:47.382Z,29.72
2022-07-25T12:24:14.421Z,29.79
2022-07-25T12:26:41.742Z,29.91
2022-07-25T12:29:09.288Z,30.14
2022-07-25T12:31:36.801Z,30.01
2022-07-25T12:34:04.179Z,29.86
2022-07-25T12:36:31.264Z,29.77
2022-07-25T12:38:58.339Z,29.81
2022-07-25T12:41:25.559Z,29.87
2022-07-25T12:43:52.622Z,29.75
2022-07-25T12:46:19.907Z,29.63
2022-07-25T12:48:47.226Z,29.53
2022-07-25T12:51:14.360Z,29.65
2022-07-25T12:53:42.609Z,29.80
2022-07-25T12:56:10.061Z,29.94
2022-07-25T12:58:37.639Z,29.91
2022-07-25T13:01:06.389Z,29.86
2022-07-25T13:03:33.699Z,29.66
2022-07-25T13:06:00.860Z,29.59
2022-07-25T13:08:28.019Z,29.59
2022-07-25T13:10:55.160Z,29.69
2022-07-25T13:13:22.245Z,29.91
2022-07-25T13:15:49.563Z,30.08
2022-07-25T13:18:16.622Z,30.10
2022-07-25T13:20:43.743Z,30.09
2022-07-25T13:23:10.841Z,30.03
2022-07-25T13:25:38.024Z,29.96
2022-07-25T13:28:08.619Z,29.94
2022-07-25T13:30:38.661Z,30.02
2022-07-25T13:33:05.860Z,29.97
2022-07-25T13:35:38.768Z,30.05
2022-07-25T13:38:06.305Z,30.11
2022-07-25T13:40:33.843Z,30.20
2022-07-25T13:43:00.831Z,30.35
2022-07-25T13:45:27.934Z,30.32
2022-07-25T13:48:18.950Z,30.05
2022-07-25T13:50:42.281Z,29.98
2022-07-25T13:53:09.463Z,29.98
2022-07-25T13:55:38.200Z,30.00
2022-07-25T13:58:05.291Z,29.97
2022-07-25T14:00:32.366Z,29.92
2022-07-25T14:02:59.481Z,29.91
2022-07-25T14:05:27.106Z,29.81
2022-07-25T14:07:54.962Z,29.81
2022-07-25T14:10:22.262Z,29.64
2022-07-25T14:12:50.035Z,29.53
2022-07-25T14:15:17.780Z,29.40
2022-07-25T14:17:44.998Z,29.26
2022-07-25T14:20:13.160Z,29.13
2022-07-25T14:22:42.300Z,29.11
2022-07-25T14:25:10.640Z,29.14
2022-07-25T14:27:38.539Z,29.19
2022-07-25T14:30:07.102Z,29.39
2022-07-25T14:32:34.260Z,29.54
2022-07-25T14:35:02.664Z,29.64
2022-07-25T14:37:31.660Z,29.59
2022-07-25T14:39:59.434Z,29.52
2022-07-25T14:42:26.513Z,29.42
2022-07-25T14:44:53.633Z,29.27
2022-07-25T14:47:22.326Z,29.18
2022-07-25T14:49:50.150Z,29.10
2022-07-25T14:52:17.533Z,29.15
2022-07-25T14:54:44.861Z,29.22
2022-07-25T14:57:12.121Z,29.32
2022-07-25T14:59:39.381Z,29.40
2022-07-25T15:02:06.743Z,29.47
2022-07-25T15:04:34.054Z,29.61
2022-07-25T15:07:01.322Z,29.65
2022-07-25T15:09:28.489Z,29.66
2022-07-25T15:11:55.475Z,29.77
2022-07-25T15:14:22.451Z,29.68
2022-07-25T15:16:49.520Z,29.52
2022-07-25T15:19:17.357Z,29.28
2022-07-25T15:21:45.585Z,29.13
2022-07-25T15:24:13.743Z,29.10
2022-07-25T15:26:40.723Z,29.10
2022-07-25T15:29:09.835Z,29.12
2022-07-25T15:31:37.392Z,29.05
2022-07-25T15:34:04.521Z,28.95
2022-07-25T15:36:31.603Z,28.76
2022-07-25T15:38:58.552Z,28.73
2022-07-25T15:41:26.730Z,28.71
2022-07-25T15:43:53.853Z,28.75
2022-07-25T15:46:20.949Z,28.85
2022-07-25T15:48:48.921Z,28.95
2022-07-25T15:51:17.036Z,29.01
2022-07-25T15:53:44.142Z,28.99
2022-07-25T15:56:13.804Z,28.94
2022-07-25T15:58:40.977Z,28.80
2022-07-25T16:01:08.341Z,28.75
2022-07-25T16:03:35.866Z,28.74
2022-07-25T16:06:04.765Z,28.78
2022-07-25T16:08:32.441Z,28.90
2022-07-25T16:11:00.301Z,28.90
2022-07-25T16:13:27.520Z,28.90
2022-07-25T16:15:54.888Z,28.80
2022-07-25T16:18:22.601Z,28.75
2022-07-25T16:20:49.780Z,28.76
2022-07-25T16:23:16.887Z,28.71
2022-07-25T16:25:44.162Z,28.71
2022-07-25T16:28:11.281Z,28.71
2022-07-25T16:30:38.489Z,28.70
2022-07-25T16:33:05.921Z,28.68
2022-07-25T16:35:33.232Z,28.58
2022-07-25T16:38:00.744Z,28.50
2022-07-25T16:40:30.943Z,28.42
2022-07-25T16:42:59.414Z,28.30
2022-07-25T16:45:27.068Z,28.28
2022-07-25T16:47:54.225Z,28.19
2022-07-25T16:50:21.553Z,28.11
2022-07-25T16:52:48.762Z,28.07
2022-07-25T16:55:16.453Z,28.02
2022-07-25T16:57:43.495Z,27.99
2022-07-25T17:00:11.331Z,27.97
2022-07-25T17:02:40.724Z,27.93
2022-07-25T17:05:08.305Z,27.95
2022-07-25T17:07:35.680Z,27.93
2022-07-25T17:10:03.385Z,27.90
2022-07-25T17:12:30.488Z,27.85
2022-07-25T17:14:57.801Z,27.76
2022-07-25T17:17:24.888Z,27.65
2022-07-25T17:19:56.562Z,27.55
2022-07-25T17:22:26.701Z,27.45
2022-07-25T17:24:53.908Z,27.40
2022-07-25T17:27:21.221Z,27.24
2022-07-25T17:29:48.379Z,27.12
2022-07-25T17:32:15.572Z,27.03
2022-07-25T17:34:42.790Z,26.99
2022-07-25T17:37:10.485Z,27.05
2022-07-25T17:39:37.988Z,27.11
2022-07-25T17:42:07.814Z,27.16
2022-07-25T17:44:35.323Z,27.20
2022-07-25T17:47:03.551Z,27.19
2022-07-25T17:49:31.000Z,27.16
2022-07-25T17:51:57.991Z,27.14
2022-07-25T17:54:25.264Z,27.08
2022-07-25T17:56:52.512Z,27.00
2022-07-25T17:59:19.535Z,26.89
2022-07-25T18:01:46.661Z,26.79
2022-07-25T18:04:14.574Z,26.66
2022-07-25T18:06:41.841Z,26.57
2022-07-25T18:09:08.857Z,26.45
2022-07-25T18:11:36.056Z,26.33
2022-07-25T18:14:03.044Z,26.20
2022-07-25T18:16:30.175Z,26.07
2022-07-25T18:18:57.386Z,25.94
2022-07-25T18:21:24.571Z,25.79
2022-07-25T18:23:52.253Z,25.64
2022-07-25T18:26:19.640Z,25.52
2022-07-25T18:28:46.903Z,25.39
2022-07-25T18:31:14.045Z,25.27
2022-07-25T18:33:41.596Z,25.11
2022-07-25T18:36:08.955Z,24.98
2022-07-25T18:38:36.250Z,24.84
2022-07-25T18:41:26.816Z,24.72
2022-07-25T18:43:51.731Z,24.59
2022-07-25T18:46:18.993Z,24.53
2022-07-25T18:48:46.177Z,24.43
2022-07-25T18:51:13.569Z,24.33
2022-07-25T18:53:44.762Z,24.22
2022-07-25T18:56:14.694Z,24.12
2022-07-25T18:58:41.644Z,24.00
2022-07-25T19:01:09.497Z,23.94
2022-07-25T19:03:37.728Z,23.83
2022-07-25T19:06:05.604Z,23.75
2022-07-25T19:08:33.046Z,23.66
2022-07-25T19:11:00.684Z,23.57
2022-07-25T19:13:48.209Z,23.51
2022-07-25T19:16:15.883Z,23.45
2022-07-25T19:18:43.082Z,23.37
2022-07-25T19:21:11.374Z,23.30
2022-07-25T19:23:38.379Z,23.26
2022-07-25T19:26:06.483Z,23.20
2022-07-25T19:28:35.818Z,23.15
2022-07-25T19:31:02.873Z,23.12
2022-07-25T19:33:34.804Z,23.04
2022-07-25T19:36:04.225Z,22.96
2022-07-25T19:38:31.571Z,22.86
2022-07-25T19:40:59.141Z,22.79
2022-07-25T19:43:26.445Z,22.73
2022-07-25T19:45:54.137Z,22.68
2022-07-25T19:48:24.096Z,22.66
2022-07-25T19:50:52.375Z,22.65
2022-07-25T19:53:25.348Z,22.59
2022-07-25T19:55:55.236Z,22.59
2022-07-25T19:58:22.460Z,22.58
2022-07-25T20:00:49.716Z,22.55
2022-07-25T20:03:17.200Z,22.53
2022-07-25T20:05:52.279Z,22.55
2022-07-25T20:08:19.708Z,22.61
2022-07-25T20:10:48.455Z,22.60
2022-07-25T20:13:16.287Z,22.55
2022-07-25T20:15:43.623Z,22.48
2022-07-25T20:18:12.927Z,22.42
2022-07-25T20:20:45.159Z,22.30
2022-07-25T20:23:12.402Z,22.18
2022-07-25T20:25:39.747Z,22.11
2022-07-25T20:28:07.271Z,22.08
2022-07-25T20:30:35.278Z,22.01
2022-07-25T20:33:07.971Z,21.94
2022-07-25T20:35:38.124Z,21.88
2022-07-25T20:38:09.057Z,21.90
2022-07-25T20:40:46.453Z,21.88
2022-07-25T20:43:15.603Z,21.88
2022-07-25T20:45:42.859Z,21.84
2022-07-25T20:48:10.266Z,21.77
2022-07-25T20:50:37.893Z,21.71
2022-07-25T20:53:06.166Z,21.69
2022-07-25T20:55:34.039Z,21.64
2022-07-25T20:58:01.460Z,21.62
2022-07-25T21:00:29.169Z,21.59
2022-07-25T21:02:57.183Z,21.61
2022-07-25T21:05:24.575Z,21.65
2022-07-25T21:07:51.761Z,21.68
2022-07-25T21:10:19.189Z,21.70
2022-07-25T21:12:46.605Z,21.66
2022-07-25T21:15:13.757Z,21.66
2022-07-25T21:17:41.904Z,21.67
2022-07-25T21:20:11.082Z,21.62
2022-07-25T21:22:38.225Z,21.63
2022-07-25T21:25:06.018Z,21.66
2022-07-25T21:27:33.225Z,21.70
2022-07-25T21:30:00.377Z,21.70
2022-07-25T21:32:27.421Z,21.74
2022-07-25T21:34:54.885Z,21.77
2022-07-25T21:37:21.824Z,21.79
2022-07-25T21:39:49.064Z,21.79
2022-07-25T21:42:16.062Z,21.75
2022-07-25T21:44:44.547Z,21.76
2022-07-25T21:47:12.114Z,21.74
2022-07-25T21:49:57.991Z,21.73
2022-07-25T21:52:30.062Z,21.76
2022-07-25T21:55:04.047Z,21.73
2022-07-25T21:57:31.592Z,21.73
2022-07-25T21:59:58.673Z,21.79
2022-07-25T22:05:11.736Z,21.88
2022-07-25T22:07:39.152Z,21.88
2022-07-25T22:10:08.289Z,21.89
2022-07-25T22:12:35.372Z,21.89
2022-07-25T22:15:02.554Z,21.93
2022-07-25T22:17:48.540Z,21.91
2022-07-25T22:20:16.800Z,21.96
2022-07-25T22:22:44.049Z,21.99
2022-07-25T22:25:11.193Z,21.95
2022-07-25T22:27:38.391Z,21.94
2022-07-25T22:30:06.233Z,21.89
2022-07-25T22:32:33.572Z,21.92
2022-07-25T22:35:00.808Z,21.94
2022-07-25T22:37:27.895Z,22.00
2022-07-25T22:40:01.287Z,22.01
2022-07-25T22:42:28.757Z,22.04
2022-07-25T22:44:55.815Z,22.01
2022-07-25T22:47:22.943Z,22.05
2022-07-25T22:49:50.113Z,22.06
2022-07-25T22:52:17.111Z,22.16
2022-07-25T22:54:44.336Z,22.21
2022-07-25T22:57:11.290Z,22.22
2022-07-25T22:59:38.432Z,22.22
2022-07-25T23:02:05.536Z,22.23
2022-07-25T23:04:32.689Z,22.23
2022-07-25T23:06:59.732Z,22.26
2022-07-25T23:09:33.751Z,22.27
2022-07-25T23:12:04.840Z,22.27
2022-07-25T23:17:17.374Z,22.31
2022-07-25T23:22:15.502Z,22.35
2022-07-25T23:24:42.979Z,22.36
2022-07-25T23:27:10.593Z,22.40
2022-07-25T23:29:37.940Z,22.41
2022-07-25T23:32:05.643Z,22.44
2022-07-25T23:34:33.372Z,22.43
2022-07-25T23:37:01.615Z,22.38
2022-07-25T23:41:55.683Z,22.27
2022-07-25T23:47:10.150Z,22.23
2022-07-25T23:49:38.371Z,22.17
2022-07-25T23:52:05.533Z,22.11
2022-07-25T23:54:35.043Z,22.03
2022-07-25T23:57:03.057Z,21.98
2022-07-25T23:59:30.063Z,21.97
